Informes de METARS cercanos

 

LEAL - Alicante/El Alte, Spain
Distance from station: SSE 60km
Actualización: 17/10/2019 15:00
Despejado
Despejado
 Viento del SSO
Viento: SSO 9 km/h
Temperatura: 27°C
Rocío: 8°C
Humedad: 30%
Barómetro: 1017 hPa
Resumen: Despejado
Visibility: greater than 10 km
2019/10/17 13:00 LEAL 171300Z 20005KT 140V260 CAVOK 27/08 Q1017 NOSIG
LEVC - Valencia (civ/Mi, Spain
Distance from station: NNE 84km
Actualización: 17/10/2019 15:00
Despejado
Despejado
 Viento del OSO
Viento: OSO 24 km/h
Temperatura: 28°C
Rocío: 6°C
Humedad: 25%
Barómetro: 1015 hPa
Resumen: Despejado
Visibility: greater than 10 km
2019/10/17 13:00 LEVC 171300Z 24013KT 200V270 CAVOK 28/06 Q1015 NOSIG
 
LEAB - Albacete (civ/Mi, Spain
Distance from station: O 95km
Actualización: 17/10/2019 15:00
Despejado
Despejado
 Viento del ONO
Viento: ONO 20 km/h
Temperatura: 21°C
Rocío: 4°C
Humedad: 33%
Barómetro: 1020 hPa
Resumen: Despejado
Visibility: greater than 10 km
2019/10/17 13:00 LEAB 171300Z 30011KT CAVOK 21/04 Q1020 NOSIG
LERI - Alcantarilla(Sp-, Spain
Distance from station: SSO 100km
Actualización: 17/10/2019 15:00
Despejado
Despejado
 Viento del S
Viento: S 2 km/h
Temperatura: 26°C
Rocío: 4°C
Humedad: 24%
Barómetro: 1017 hPa
Resumen: Despejado
Visibility: greater than 10 km
2019/10/17 13:00 LERI 171300Z 17001KT CAVOK 26/04 Q1017 NOSIG
 
LELC - San Javier(Mil/C, Spain
Distance from station: S 113km
Actualización: 17/10/2019 15:00
Despejado
Despejado
 Viento del SSE
Viento: SSE 11 km/h
Temperatura: 26°C
Rocío: 11°C
Humedad: 39%
Barómetro: 1017 hPa
Resumen: Despejado
Visibility: greater than 10 km
2019/10/17 13:00 LELC 171300Z 15006KT 110V190 CAVOK 26/11 Q1017 NOSIG
LEIB - Ibiza/Es Codola, Spain
Distance from station: E 186km
Actualización: 17/10/2019 15:00
Few Clouds
Few Clouds
 Viento del SO
Viento: SO 20 km/h
Temperatura: 24°C
Rocío: 13°C
Humedad: 50%
Barómetro: 1017 hPa
Clouds: Few Clouds
Visibility: 10 km
Cloud details: Few Clouds 762 m
2019/10/17 13:00 LEIB 171300Z 23011KT 190V260 9999 FEW025 24/13 Q1017 NOSIG
 
LEAM - Almeria Airport, Spain
Distance from station: SSO 256km
Actualización: 17/10/2019 15:00
Despejado
Despejado
 Viento del SSO
Viento: SSO 24 km/h
Temperatura: 23°C
Rocío: 15°C
Humedad: 61%
Barómetro: 1017 hPa
Resumen: Despejado
Visibility: greater than 10 km
2019/10/17 13:00 LEAM 171300Z 20013KT CAVOK 23/15 Q1017
LEMD - Madrid/Barajas, Spain
Distance from station: NO 305km
Actualización: 17/10/2019 15:00
Cubierto
Cubierto
 Viento del S
Viento: S 15 km/h
Temperatura: 14°C
Rocío: 12°C
Humedad: 88%
Barómetro: 1020 hPa
Clouds: Cubierto
Visibility: 10 km
Cloud details: Parcialmente nuboso 427 m
Cubierto 488 m
2019/10/17 13:00 LEMD 171300Z 18008KT 130V210 9999 SCT014 OVC016 14/12 Q1020 NOSIG
 
LEPA - Palma De Mallorc, Spain
Distance from station: ENE 313km
Actualización: 17/10/2019 15:00
Few Clouds
Few Clouds
 Viento del SO
Viento: SO 20 km/h
Temperatura: 25°C
Rocío: 16°C
Humedad: 57%
Barómetro: 1017 hPa
Clouds: Few Clouds
Visibility: 10 km
Cloud details: Few Clouds 823 m
2019/10/17 13:00 LEPA 171300Z 23011KT 190V270 9999 FEW027 25/16 Q1017 NOSIG